Sheridan, WY (82801)

2:22 PM MDT on September 29, 2016 (GMT -0600)
South Sheridan | | Change Station

Elev 3770 ft 44.79 °N, 106.95 °W | Updated 5 seconds ago

Partly Cloudy
Partly Cloudy
69.8 °F
Feels Like 69.8 °F
N
0.0
Wind Variable Wind from South
Gusts 0.0 mph

Today
High -- | Low -- °F
--% Chance of Precip.
Yesterday
High -- | Low -- °F
Precip. -- in
Pressure 30.05 in
Visibility 10.0 miles
Clouds Few 12000 ft
Dew Point 53 °F
Humidity 55%
Rainfall 0.00 in
Snow Depth Not available.
7:04 AM 6:51 PM
Waning Crescent, 1% visible
METAR KSHR 291953Z AUTO 00000KT 10SM FEW120 21/12 A3013 RMK AO2 SLP176 T02060117
Pressure 30.05 in
Visibility 10.0 miles
Clouds Few 12000 ft
Dew Point 53 °F
Humidity 55%
Rainfall 0.00 in
Snow Depth Not available.
7:04 AM 6:51 PM
Waning Crescent, 1% visible
METAR KSHR 291953Z AUTO 00000KT 10SM FEW120 21/12 A3013 RMK AO2 SLP176 T02060117

10-Day Weather Forecast

Almanac

Astronomy

Sep. 29, 2016 Rise Set
Actual Time
Civil Twilight
Nautical Twilight
Astronomical Twilight
Moon
Length of Visible Light
Length of Day
Tomorrow will be .
, % of the Moon is Illuminated

Today's Extremes

State Highs State Lows

Community

WunderPhotos

Upload Photos

1,942,560 photos uploaded!

WunderBlog® & News

Nearby

Air Quality

  Air Quality AQ Index Pollutant
Not available.

Snow Depth

Station Depth Elevation

Earthquake Activity

City Distance Mag. Time & Date
Minimum magnitude displayed is 2.5.

Coastal Water Temperatures

Place Temperature

Stations

Nearby Weather Stations

Station Location Temp. Windchill Dew Point Humidity Wind Precip. Elev Updated Type
                   

Watches & Warnings

There are currently no watches in effect.